createdAt,value
2023-03-06T00:01:52.031Z,213.80
2023-03-06T00:04:19.417Z,207.40
2023-03-06T00:06:46.853Z,185.40
2023-03-06T00:09:14.436Z,173.18
2023-03-06T00:11:41.890Z,185.23
2023-03-06T00:14:09.309Z,178.02
2023-03-06T00:16:36.893Z,160.68
2023-03-06T00:19:04.308Z,148.75
2023-03-06T00:21:31.879Z,161.82
2023-03-06T00:23:59.303Z,165.52
2023-03-06T00:26:27.874Z,177.05
2023-03-06T00:28:55.340Z,184.50
2023-03-06T00:31:22.812Z,184.55
2023-03-06T00:33:50.228Z,180.15
2023-03-06T00:36:17.756Z,181.93
2023-03-06T00:38:45.209Z,195.52
2023-03-06T00:41:13.080Z,182.45
2023-03-06T00:43:40.608Z,185.20
2023-03-06T00:46:08.257Z,189.18
2023-03-06T00:48:35.855Z,192.48
2023-03-06T00:51:03.257Z,185.45
2023-03-06T00:53:30.711Z,178.68
2023-03-06T00:55:58.194Z,175.85
2023-03-06T00:58:25.677Z,173.40
2023-03-06T01:00:53.285Z,172.02
2023-03-06T01:03:20.688Z,170.30
2023-03-06T01:05:48.187Z,184.23
2023-03-06T01:08:15.791Z,176.23
2023-03-06T01:10:43.194Z,183.27
2023-03-06T01:13:10.632Z,187.88
2023-03-06T01:15:38.074Z,169.48
2023-03-06T01:18:05.467Z,190.32
2023-03-06T01:20:32.919Z,180.55
2023-03-06T01:23:00.468Z,174.73
2023-03-06T01:25:27.905Z,186.85
2023-03-06T01:27:55.260Z,182.68
2023-03-06T01:30:22.713Z,181.30
2023-03-06T01:32:50.170Z,185.00
2023-03-06T01:35:17.856Z,185.60
2023-03-06T01:37:48.031Z,192.10
2023-03-06T01:40:15.418Z,190.00
2023-03-06T01:42:42.820Z,177.02
2023-03-06T01:45:16.322Z,167.43
2023-03-06T01:47:44.924Z,155.27
2023-03-06T01:50:12.320Z,145.48
2023-03-06T01:52:40.895Z,143.82
2023-03-06T01:55:12.015Z,138.93
2023-03-06T01:57:40.656Z,127.65
2023-03-06T02:00:14.236Z,127.15
2023-03-06T02:02:43.033Z,126.47
2023-03-06T02:05:10.746Z,115.83
2023-03-06T02:07:38.287Z,114.28
2023-03-06T02:10:06.281Z,123.15
2023-03-06T02:12:33.800Z,130.60
2023-03-06T02:15:01.225Z,135.02
2023-03-06T02:17:28.830Z,138.77
2023-03-06T02:19:59.473Z,134.45
2023-03-06T02:22:27.214Z,142.05
2023-03-06T02:24:59.599Z,136.60
2023-03-06T02:27:27.037Z,140.93
2023-03-06T02:29:54.502Z,152.10
2023-03-06T02:32:21.924Z,128.98
2023-03-06T02:34:53.815Z,140.40
2023-03-06T02:37:21.525Z,135.98
2023-03-06T02:39:51.052Z,151.02
2023-03-06T02:42:19.210Z,131.35
2023-03-06T02:44:46.671Z,130.25
2023-03-06T02:47:14.107Z,134.60
2023-03-06T02:49:41.526Z,130.80
2023-03-06T02:52:08.914Z,136.25
2023-03-06T02:54:36.374Z,134.32
2023-03-06T02:57:03.786Z,136.23
2023-03-06T02:59:31.242Z,132.25
2023-03-06T03:01:58.726Z,131.32
2023-03-06T03:04:26.119Z,132.35
2023-03-06T03:06:53.553Z,129.48
2023-03-06T03:09:20.930Z,128.63
2023-03-06T03:11:48.359Z,124.72
2023-03-06T03:14:17.033Z,119.35
2023-03-06T03:16:45.437Z,127.25
2023-03-06T03:19:12.840Z,117.95
2023-03-06T03:21:41.181Z,117.07
2023-03-06T03:24:09.079Z,114.43
2023-03-06T03:26:36.573Z,108.75
2023-03-06T03:29:05.247Z,121.82
2023-03-06T03:31:32.960Z,128.80
2023-03-06T03:34:00.669Z,122.47
2023-03-06T03:36:28.135Z,112.68
2023-03-06T03:38:55.683Z,100.80
2023-03-06T03:41:23.097Z,106.00
2023-03-06T03:43:50.510Z,112.97
2023-03-06T03:46:18.042Z,112.07
2023-03-06T03:48:45.415Z,105.72
2023-03-06T03:51:13.394Z,104.57
2023-03-06T03:53:40.841Z,103.65
2023-03-06T03:56:08.305Z,107.55
2023-03-06T03:58:35.795Z,109.07
2023-03-06T04:01:03.207Z,107.05
2023-03-06T04:03:30.664Z,105.88
2023-03-06T04:05:58.207Z,118.65
2023-03-06T04:08:25.942Z,122.30
2023-03-06T04:10:53.644Z,107.20
2023-03-06T04:13:22.157Z,117.82
2023-03-06T04:15:50.161Z,143.95
2023-03-06T04:18:17.836Z,143.45
2023-03-06T04:20:45.752Z,154.82
2023-03-06T04:23:13.308Z,163.55
2023-03-06T04:25:40.847Z,166.43
2023-03-06T04:28:08.274Z,204.23
2023-03-06T04:30:35.710Z,193.63
2023-03-06T04:33:03.231Z,160.07
2023-03-06T04:35:30.716Z,141.88
2023-03-06T04:37:58.188Z,185.48
2023-03-06T04:40:29.786Z,143.68
2023-03-06T04:42:57.737Z,208.60
2023-03-06T04:45:25.400Z,216.18
2023-03-06T04:47:52.834Z,351.85
2023-03-06T04:50:20.376Z,254.68
2023-03-06T04:52:47.774Z,297.02
2023-03-06T04:55:15.655Z,320.70
2023-03-06T04:57:43.742Z,300.27
2023-03-06T05:00:14.906Z,245.07
2023-03-06T05:02:43.298Z,266.20
2023-03-06T05:05:11.033Z,172.63
2023-03-06T05:07:38.552Z,160.73
2023-03-06T05:10:06.300Z,151.35
2023-03-06T05:12:36.297Z,166.35
2023-03-06T05:15:04.466Z,152.65
2023-03-06T05:17:31.917Z,150.70
2023-03-06T05:19:59.389Z,145.60
2023-03-06T05:22:26.805Z,140.50
2023-03-06T05:24:54.285Z,127.53
2023-03-06T05:27:21.780Z,115.38
2023-03-06T05:29:49.173Z,127.53
2023-03-06T05:32:17.244Z,121.60
2023-03-06T05:34:44.758Z,116.10
2023-03-06T05:37:12.220Z,126.85
2023-03-06T05:39:39.828Z,130.07
2023-03-06T05:42:07.388Z,126.43
2023-03-06T05:44:35.297Z,118.18
2023-03-06T05:47:02.759Z,120.97
2023-03-06T05:49:34.013Z,118.60
2023-03-06T05:52:01.743Z,105.57
2023-03-06T05:54:29.309Z,103.68
2023-03-06T05:56:57.629Z,110.75
2023-03-06T05:59:28.310Z,110.50
2023-03-06T06:01:56.215Z,102.13
2023-03-06T06:04:24.023Z,123.82
2023-03-06T06:06:55.155Z,117.63
2023-03-06T06:09:22.668Z,119.07
2023-03-06T06:11:53.864Z,135.93
2023-03-06T06:14:21.389Z,133.18
2023-03-06T06:16:48.846Z,140.55
2023-03-06T06:19:19.003Z,149.88
2023-03-06T06:21:47.528Z,130.80
2023-03-06T06:24:15.653Z,120.03
2023-03-06T06:26:43.137Z,112.00
2023-03-06T06:29:10.846Z,119.53
2023-03-06T06:31:38.403Z,101.47
2023-03-06T06:34:06.631Z,95.78
2023-03-06T06:36:34.456Z,101.75
2023-03-06T06:39:01.932Z,95.97
2023-03-06T06:41:46.573Z,100.78
2023-03-06T06:44:17.698Z,116.10
2023-03-06T06:49:33.346Z,137.63
2023-03-06T06:52:00.990Z,138.48
2023-03-06T06:54:28.537Z,133.05
2023-03-06T06:56:56.117Z,129.50
2023-03-06T06:59:24.152Z,115.97
2023-03-06T07:01:52.508Z,107.72
2023-03-06T07:04:20.166Z,93.28
2023-03-06T07:06:47.737Z,95.90
2023-03-06T07:09:15.267Z,95.80
2023-03-06T07:11:42.752Z,96.57
2023-03-06T07:14:10.151Z,99.05
2023-03-06T07:16:37.682Z,105.35
2023-03-06T07:19:06.116Z,102.72
2023-03-06T07:21:33.806Z,117.65
2023-03-06T07:24:01.292Z,121.43
2023-03-06T07:26:28.912Z,133.05
2023-03-06T07:28:56.720Z,115.53
2023-03-06T07:31:25.218Z,116.30
2023-03-06T07:33:55.336Z,100.65
2023-03-06T07:36:23.375Z,101.55
2023-03-06T07:38:51.243Z,94.88
2023-03-06T07:41:21.871Z,81.22
2023-03-06T07:43:49.997Z,73.03
2023-03-06T07:46:17.556Z,82.72
2023-03-06T07:48:45.095Z,81.50
2023-03-06T07:51:19.435Z,80.43
2023-03-06T07:53:47.241Z,70.82
2023-03-06T07:56:14.901Z,78.20
2023-03-06T07:58:43.814Z,70.05
2023-03-06T08:01:12.894Z,66.43
2023-03-06T08:06:14.272Z,79.03
2023-03-06T08:08:42.246Z,73.40
2023-03-06T08:11:10.010Z,84.28
2023-03-06T08:13:38.631Z,72.13
2023-03-06T08:16:06.547Z,85.30
2023-03-06T08:18:34.179Z,84.72
2023-03-06T08:21:21.993Z,82.68
2023-03-06T08:23:49.587Z,81.05
2023-03-06T08:26:20.737Z,81.20
2023-03-06T08:28:48.302Z,76.50
2023-03-06T08:31:25.470Z,67.85
2023-03-06T08:33:59.012Z,62.97
2023-03-06T08:36:30.237Z,62.80
2023-03-06T08:39:01.122Z,65.72
2023-03-06T08:41:32.210Z,60.92
2023-03-06T08:44:00.020Z,66.13
2023-03-06T08:48:57.163Z,66.80
2023-03-06T08:51:25.144Z,70.53
2023-03-06T08:53:52.815Z,70.18
2023-03-06T08:58:57.796Z,73.70
2023-03-06T09:01:26.490Z,97.47
2023-03-06T09:03:57.814Z,132.90
2023-03-06T09:06:27.745Z,132.82
2023-03-06T09:08:55.337Z,138.55
2023-03-06T09:11:23.355Z,139.00
2023-03-06T09:22:43.877Z,120.88
2023-03-06T09:25:13.682Z,120.60
2023-03-06T09:27:42.249Z,119.63
2023-03-06T09:30:12.579Z,104.50
2023-03-06T09:32:40.216Z,84.32
2023-03-06T09:35:07.923Z,89.13
2023-03-06T09:37:35.444Z,82.55
2023-03-06T09:40:03.028Z,91.72
2023-03-06T09:42:36.238Z,74.68
2023-03-06T09:45:05.777Z,59.75
2023-03-06T09:47:33.693Z,57.20
2023-03-06T09:50:19.755Z,65.88
2023-03-06T09:53:18.022Z,56.72
2023-03-06T09:55:47.372Z,51.42
2023-03-06T10:01:17.728Z,55.38
2023-03-06T10:04:07.982Z,54.72
2023-03-06T10:06:47.791Z,52.05
2023-03-06T10:09:20.033Z,51.55
2023-03-06T10:12:19.526Z,49.03
2023-03-06T10:14:49.384Z,47.85
2023-03-06T10:17:20.560Z,47.55
2023-03-06T10:19:48.487Z,42.05
2023-03-06T10:22:26.548Z,43.33
2023-03-06T10:25:12.894Z,44.13
2023-03-06T10:27:50.949Z,40.28
2023-03-06T10:30:58.998Z,43.28
2023-03-06T10:33:44.722Z,44.30
2023-03-06T10:36:13.854Z,41.78
2023-03-06T10:41:14.693Z,43.78
2023-03-06T10:43:43.029Z,43.25
2023-03-06T10:46:19.437Z,42.03
2023-03-06T10:48:47.301Z,44.75
2023-03-06T10:51:24.540Z,41.15
2023-03-06T10:53:56.243Z,37.35
2023-03-06T10:56:30.760Z,39.55
2023-03-06T10:59:14.920Z,37.97
2023-03-06T11:01:43.101Z,38.83
2023-03-06T11:04:17.046Z,36.00
2023-03-06T11:06:44.653Z,42.10
2023-03-06T11:09:18.099Z,45.22
2023-03-06T11:11:45.866Z,52.60
2023-03-06T11:14:17.565Z,40.08
2023-03-06T11:16:53.310Z,41.50
2023-03-06T11:19:23.125Z,40.50
2023-03-06T11:22:03.898Z,43.20
2023-03-06T11:24:38.442Z,43.45
2023-03-06T11:27:20.305Z,39.10
2023-03-06T11:29:48.557Z,40.08
2023-03-06T11:32:17.656Z,35.55
2023-03-06T11:34:50.293Z,31.33
2023-03-06T11:37:22.050Z,27.23
2023-03-06T11:39:51.419Z,26.25
2023-03-06T11:42:24.383Z,29.73
2023-03-06T11:45:07.278Z,35.25
2023-03-06T11:47:36.362Z,37.90
2023-03-06T11:50:31.785Z,37.83
2023-03-06T11:53:05.286Z,35.92
2023-03-06T11:55:45.934Z,32.00
2023-03-06T11:58:28.547Z,24.98
2023-03-06T12:01:01.773Z,29.85
2023-03-06T12:03:40.258Z,23.23
2023-03-06T12:06:13.794Z,24.05
2023-03-06T12:09:06.761Z,21.50
2023-03-06T12:11:43.221Z,22.83
2023-03-06T12:14:23.000Z,16.60
2023-03-06T12:17:23.578Z,14.35
2023-03-06T12:20:47.659Z,15.55
2023-03-06T12:29:55.934Z,17.42
2023-03-06T12:32:29.076Z,19.52
2023-03-06T12:35:15.415Z,22.25
2023-03-06T12:38:01.169Z,16.67
2023-03-06T12:40:28.687Z,19.55
2023-03-06T12:43:14.505Z,22.67
2023-03-06T12:45:44.385Z,14.68
2023-03-06T12:48:19.578Z,15.55
2023-03-06T12:56:22.673Z,18.45
2023-03-06T12:59:27.559Z,16.33
2023-03-06T13:02:14.379Z,20.02
2023-03-06T13:04:50.918Z,22.50
2023-03-06T13:07:18.435Z,20.67
2023-03-06T13:09:48.925Z,17.33
2023-03-06T13:12:26.961Z,14.98
2023-03-06T13:14:58.694Z,18.70
2023-03-06T13:17:29.579Z,15.35
2023-03-06T13:20:15.741Z,18.60
2023-03-06T13:22:43.707Z,17.73
2023-03-06T13:25:22.695Z,12.02
2023-03-06T13:37:20.136Z,14.52
2023-03-06T13:39:59.795Z,14.93
2023-03-06T13:42:27.832Z,16.50
2023-03-06T13:44:59.112Z,16.98
2023-03-06T13:50:45.331Z,15.75
2023-03-06T13:53:13.493Z,13.63
2023-03-06T13:55:44.124Z,15.90
2023-03-06T13:58:26.330Z,14.23
2023-03-06T14:01:00.200Z,12.68
2023-03-06T14:03:58.295Z,11.25
2023-03-06T14:06:46.084Z,13.52
2023-03-06T14:09:43.182Z,17.60
2023-03-06T14:12:26.919Z,13.35
2023-03-06T14:14:56.795Z,14.60
2023-03-06T14:17:26.577Z,13.85
2023-03-06T14:19:54.123Z,15.18
2023-03-06T14:22:24.144Z,18.70
2023-03-06T14:24:58.412Z,16.58
2023-03-06T14:27:39.927Z,9.70
2023-03-06T14:30:08.510Z,12.48
2023-03-06T14:35:06.971Z,14.15
2023-03-06T14:37:34.573Z,14.68
2023-03-06T14:40:07.144Z,16.20
2023-03-06T14:42:38.021Z,19.52
2023-03-06T14:45:18.876Z,13.77
2023-03-06T14:47:54.812Z,11.65
2023-03-06T14:50:51.770Z,12.57
2023-03-06T14:53:23.536Z,21.17
2023-03-06T14:55:56.840Z,12.68
2023-03-06T14:58:34.074Z,14.85
2023-03-06T15:01:10.978Z,14.93
2023-03-06T15:03:43.325Z,23.33
2023-03-06T15:06:12.717Z,19.85
2023-03-06T15:08:46.736Z,16.73
2023-03-06T15:11:14.378Z,18.35
2023-03-06T15:13:42.166Z,20.77
2023-03-06T15:16:29.000Z,21.38
2023-03-06T15:19:03.329Z,28.17
2023-03-06T15:21:39.932Z,31.65
2023-03-06T15:24:26.347Z,24.30
2023-03-06T15:26:54.145Z,24.55
2023-03-06T15:29:25.949Z,25.05
2023-03-06T15:31:53.614Z,28.45
2023-03-06T15:34:32.788Z,26.75
2023-03-06T15:39:40.278Z,29.35
2023-03-06T15:42:13.754Z,21.02
2023-03-06T15:44:41.208Z,18.73
2023-03-06T15:47:12.165Z,17.23
2023-03-06T15:49:40.130Z,24.25
2023-03-06T15:52:08.000Z,26.02
2023-03-06T15:54:35.763Z,18.05
2023-03-06T15:57:06.641Z,22.48
2023-03-06T15:59:34.743Z,21.48
2023-03-06T16:02:04.021Z,21.15
2023-03-06T16:06:59.162Z,28.17
2023-03-06T16:09:26.962Z,26.25
2023-03-06T16:11:54.765Z,70.78
2023-03-06T16:14:24.183Z,112.70
2023-03-06T16:23:15.237Z,130.77
2023-03-06T16:25:43.424Z,129.95
2023-03-06T16:28:14.875Z,106.65
2023-03-06T16:30:43.091Z,116.25
2023-03-06T16:33:14.055Z,120.15
2023-03-06T16:35:44.572Z,123.50
2023-03-06T16:38:12.103Z,130.38
2023-03-06T16:40:41.621Z,108.35
2023-03-06T16:43:09.466Z,105.25
2023-03-06T16:45:40.281Z,125.93
2023-03-06T16:48:07.854Z,121.55
2023-03-06T16:50:37.818Z,118.55
2023-03-06T16:53:05.424Z,90.13
2023-03-06T16:55:32.900Z,82.63
2023-03-06T16:58:00.459Z,51.13
2023-03-06T17:00:33.246Z,47.20
2023-03-06T17:03:01.202Z,43.08
2023-03-06T17:05:29.024Z,42.05
2023-03-06T17:07:56.826Z,51.13
2023-03-06T17:10:26.536Z,58.88
2023-03-06T17:12:54.421Z,57.50
2023-03-06T17:15:21.998Z,55.83
2023-03-06T17:17:49.573Z,50.42
2023-03-06T17:20:17.108Z,55.22
2023-03-06T17:22:44.611Z,40.75
2023-03-06T17:25:12.124Z,49.75
2023-03-06T17:27:39.687Z,45.50
2023-03-06T17:30:07.536Z,53.30
2023-03-06T17:32:35.018Z,54.33
2023-03-06T17:35:02.494Z,37.78
2023-03-06T17:37:29.910Z,41.22
2023-03-06T17:39:57.365Z,37.25
2023-03-06T17:42:24.862Z,37.53
2023-03-06T17:44:53.139Z,40.80
2023-03-06T17:47:20.574Z,38.50
2023-03-06T17:49:48.107Z,35.40
2023-03-06T17:52:15.554Z,36.22
2023-03-06T17:54:42.969Z,35.10
2023-03-06T17:57:10.493Z,35.72
2023-03-06T17:59:40.926Z,32.22
2023-03-06T18:02:08.477Z,29.85
2023-03-06T18:04:36.017Z,28.90
2023-03-06T18:07:03.499Z,33.60
2023-03-06T18:09:31.078Z,30.17
2023-03-06T18:11:58.466Z,37.10
2023-03-06T18:14:25.878Z,37.75
2023-03-06T18:16:53.460Z,44.10
2023-03-06T18:19:21.038Z,39.13
2023-03-06T18:21:48.802Z,40.88
2023-03-06T18:24:16.259Z,40.67
2023-03-06T18:26:43.799Z,38.50
2023-03-06T18:29:11.214Z,49.13
2023-03-06T18:31:39.690Z,46.55
2023-03-06T18:34:11.531Z,45.80
2023-03-06T18:36:39.248Z,38.85
2023-03-06T18:39:07.321Z,47.95
2023-03-06T18:41:34.782Z,45.58
2023-03-06T18:44:02.469Z,50.47
2023-03-06T18:46:33.643Z,45.17
2023-03-06T18:49:01.227Z,41.60
2023-03-06T18:51:30.616Z,40.28
2023-03-06T18:53:58.642Z,41.33
2023-03-06T18:56:26.131Z,46.45
2023-03-06T18:58:54.209Z,46.13
2023-03-06T19:01:27.396Z,44.15
2023-03-06T19:04:32.438Z,50.67
2023-03-06T19:07:09.121Z,48.20
2023-03-06T19:09:38.158Z,43.47
2023-03-06T19:12:05.876Z,45.13
2023-03-06T19:14:33.661Z,41.33
2023-03-06T19:17:02.107Z,44.78
2023-03-06T19:19:30.239Z,58.83
2023-03-06T19:22:01.880Z,77.85
2023-03-06T19:24:29.459Z,202.25
2023-03-06T19:26:57.091Z,233.45
2023-03-06T19:29:25.970Z,196.90
2023-03-06T19:31:53.517Z,164.88
2023-03-06T19:34:23.880Z,141.00
2023-03-06T19:36:51.443Z,105.22
2023-03-06T19:39:19.077Z,96.18
2023-03-06T19:41:47.624Z,111.25
2023-03-06T19:44:16.374Z,103.70
2023-03-06T19:46:43.915Z,99.10
2023-03-06T19:49:16.949Z,98.20
2023-03-06T19:51:44.728Z,121.05
2023-03-06T19:54:15.270Z,136.77
2023-03-06T19:56:48.649Z,123.35
2023-03-06T19:59:16.292Z,173.60
2023-03-06T20:01:43.909Z,177.32
2023-03-06T20:04:14.243Z,161.02
2023-03-06T20:06:43.676Z,155.60
2023-03-06T20:09:13.848Z,160.85
2023-03-06T20:12:08.501Z,165.80
2023-03-06T20:14:49.175Z,173.40
2023-03-06T20:17:16.853Z,174.77
2023-03-06T20:19:44.646Z,173.73
2023-03-06T20:22:12.903Z,190.10
2023-03-06T20:24:42.589Z,168.60
2023-03-06T20:27:10.100Z,139.05
2023-03-06T20:29:44.921Z,144.20
2023-03-06T20:32:16.074Z,148.32
2023-03-06T20:34:44.677Z,150.57
2023-03-06T20:37:16.204Z,151.50
2023-03-06T20:39:43.825Z,138.15
2023-03-06T20:42:11.547Z,163.38
2023-03-06T20:44:44.467Z,163.10
2023-03-06T20:47:12.305Z,165.85
2023-03-06T20:49:40.147Z,158.40
2023-03-06T20:52:10.117Z,174.13
2023-03-06T20:54:47.410Z,161.13
2023-03-06T20:57:14.943Z,163.48
2023-03-06T20:59:42.580Z,175.50
2023-03-06T21:02:10.528Z,287.48
2023-03-06T21:04:41.169Z,237.27
2023-03-06T21:07:08.799Z,239.15
2023-03-06T21:09:38.048Z,256.63
2023-03-06T21:12:06.052Z,244.05
2023-03-06T21:14:33.545Z,258.02
2023-03-06T21:17:01.600Z,277.35
2023-03-06T21:19:29.338Z,237.32
2023-03-06T21:21:59.938Z,218.70
2023-03-06T21:24:27.458Z,227.82
2023-03-06T21:26:55.179Z,217.55
2023-03-06T21:29:25.416Z,234.02
2023-03-06T21:31:52.879Z,227.73
2023-03-06T21:34:20.580Z,226.30
2023-03-06T21:36:48.289Z,190.07
2023-03-06T21:39:15.752Z,203.15
2023-03-06T21:41:43.257Z,182.82
2023-03-06T21:44:11.381Z,146.32
2023-03-06T21:46:38.881Z,168.73
2023-03-06T21:49:06.458Z,184.00
2023-03-06T21:51:34.226Z,191.40
2023-03-06T21:54:03.058Z,197.23
2023-03-06T21:56:33.828Z,237.27
2023-03-06T21:59:01.557Z,206.70
2023-03-06T22:01:29.324Z,223.15
2023-03-06T22:03:57.282Z,228.80
2023-03-06T22:06:25.563Z,225.45
2023-03-06T22:08:53.160Z,222.55
2023-03-06T22:11:28.628Z,234.07
2023-03-06T22:13:56.403Z,227.20
2023-03-06T22:16:23.978Z,187.25
2023-03-06T22:18:51.906Z,174.98
2023-03-06T22:21:20.205Z,206.25
2023-03-06T22:23:57.399Z,222.32
2023-03-06T22:26:24.957Z,191.77
2023-03-06T22:28:52.615Z,198.73
2023-03-06T22:31:21.084Z,128.55
2023-03-06T22:33:51.362Z,127.35
2023-03-06T22:36:18.900Z,130.90
2023-03-06T22:38:46.463Z,151.07
2023-03-06T22:41:16.744Z,182.13
2023-03-06T22:43:44.299Z,172.30
2023-03-06T22:46:12.747Z,148.35
2023-03-06T22:48:40.332Z,149.18
2023-03-06T22:51:09.475Z,131.10
2023-03-06T22:53:37.043Z,144.35
2023-03-06T22:56:05.089Z,139.48
2023-03-06T22:58:35.695Z,130.45
2023-03-06T23:01:07.286Z,117.93
2023-03-06T23:03:38.283Z,148.38
2023-03-06T23:06:09.466Z,160.55
2023-03-06T23:08:38.954Z,174.65
2023-03-06T23:11:15.094Z,173.07
2023-03-06T23:13:42.894Z,172.52
2023-03-06T23:16:10.831Z,179.35
2023-03-06T23:18:38.896Z,180.10
2023-03-06T23:21:13.489Z,178.73
2023-03-06T23:23:41.168Z,190.70
2023-03-06T23:26:08.942Z,174.30
2023-03-06T23:28:36.481Z,184.68
2023-03-06T23:31:07.940Z,181.38
2023-03-06T23:33:35.478Z,169.35
2023-03-06T23:36:03.475Z,184.20
2023-03-06T23:38:31.047Z,191.05
2023-03-06T23:41:02.374Z,176.05
2023-03-06T23:43:29.795Z,150.82
2023-03-06T23:45:57.417Z,150.77
2023-03-06T23:48:24.968Z,142.88
2023-03-06T23:50:52.377Z,120.25
2023-03-06T23:53:19.791Z,114.43
2023-03-06T23:55:48.040Z,125.75
2023-03-06T23:58:15.718Z,148.25
